createdAt,value
2023-11-23T00:00:11.130Z,1012.33
2023-11-23T00:01:11.068Z,1012.31
2023-11-23T00:02:11.142Z,1012.31
2023-11-23T00:03:12.197Z,1012.28
2023-11-23T00:04:11.086Z,1012.34
2023-11-23T00:05:11.032Z,1012.28
2023-11-23T00:06:11.034Z,1012.20
2023-11-23T00:07:10.947Z,1012.21
2023-11-23T00:08:10.925Z,1012.20
2023-11-23T00:09:11.015Z,1012.22
2023-11-23T00:10:10.902Z,1012.17
2023-11-23T00:11:11.115Z,1012.24
2023-11-23T00:12:10.943Z,1012.20
2023-11-23T00:13:10.901Z,1012.24
2023-11-23T00:14:10.850Z,1012.28
2023-11-23T00:15:10.864Z,1012.27
2023-11-23T00:16:10.843Z,1012.27
2023-11-23T00:17:10.862Z,1012.26
2023-11-23T00:18:10.962Z,1012.16
2023-11-23T00:19:10.788Z,1012.11
2023-11-23T00:20:10.811Z,1012.12
2023-11-23T00:21:10.805Z,1012.14
2023-11-23T00:22:10.801Z,1012.16
2023-11-23T00:23:10.734Z,1012.18
2023-11-23T00:24:10.780Z,1012.18
2023-11-23T00:25:10.753Z,1012.11
2023-11-23T00:26:10.695Z,1012.08
2023-11-23T00:27:10.709Z,1012.08
2023-11-23T00:28:10.664Z,1012.03
2023-11-23T00:29:10.654Z,1012.01
2023-11-23T00:30:10.712Z,1011.99
2023-11-23T00:31:10.620Z,1012.00
2023-11-23T00:32:10.629Z,1011.98
2023-11-23T00:33:10.792Z,1011.99
2023-11-23T00:34:10.727Z,1012.01
2023-11-23T00:35:10.593Z,1011.98
2023-11-23T00:36:10.605Z,1011.97
2023-11-23T00:37:10.556Z,1011.93
2023-11-23T00:38:10.541Z,1011.94
2023-11-23T00:39:10.576Z,1011.97
2023-11-23T00:40:10.513Z,1011.97
2023-11-23T00:41:10.492Z,1011.96
2023-11-23T00:42:10.541Z,1011.95
2023-11-23T00:43:10.471Z,1011.99
2023-11-23T00:44:10.472Z,1012.01
2023-11-23T00:45:10.742Z,1011.99
2023-11-23T00:46:10.440Z,1011.97
2023-11-23T00:47:10.455Z,1012.00
2023-11-23T00:48:10.507Z,1011.96
2023-11-23T00:49:10.430Z,1012.01
2023-11-23T00:50:10.381Z,1012.04
2023-11-23T00:51:10.403Z,1012.00
2023-11-23T00:52:10.353Z,1012.02
2023-11-23T00:53:10.363Z,1012.01
2023-11-23T00:54:10.350Z,1012.01
2023-11-23T00:55:10.328Z,1011.96
2023-11-23T00:56:10.304Z,1012.01
2023-11-23T00:57:10.332Z,1011.99
2023-11-23T00:58:10.293Z,1011.99
2023-11-23T00:59:10.257Z,1012.00
2023-11-23T01:00:10.323Z,1012.02
2023-11-23T01:01:10.290Z,1011.96
2023-11-23T01:02:10.401Z,1011.95
2023-11-23T01:03:10.418Z,1011.93
2023-11-23T01:04:10.297Z,1011.90
2023-11-23T01:05:10.206Z,1011.91
2023-11-23T01:06:10.237Z,1011.97
2023-11-23T01:07:10.189Z,1011.95
2023-11-23T01:08:10.143Z,1011.97
2023-11-23T01:09:10.145Z,1011.95
2023-11-23T01:10:10.120Z,1011.90
2023-11-23T01:11:10.102Z,1011.90
2023-11-23T01:12:10.189Z,1011.89
2023-11-23T01:13:10.087Z,1011.89
2023-11-23T01:14:10.102Z,1011.87
2023-11-23T01:15:10.101Z,1011.88
2023-11-23T01:16:10.062Z,1011.88
2023-11-23T01:17:10.042Z,1011.99
2023-11-23T01:18:10.071Z,1011.96
2023-11-23T01:19:09.995Z,1011.91
2023-11-23T01:20:09.988Z,1011.91
2023-11-23T01:21:10.014Z,1011.91
2023-11-23T01:22:09.960Z,1011.83
2023-11-23T01:23:09.945Z,1011.83
2023-11-23T01:24:09.967Z,1011.80
2023-11-23T01:25:10.064Z,1011.78
2023-11-23T01:26:09.931Z,1011.78
2023-11-23T01:27:09.916Z,1011.77
2023-11-23T01:28:09.883Z,1011.74
2023-11-23T01:29:09.866Z,1011.75
2023-11-23T01:30:09.882Z,1011.75
2023-11-23T01:31:09.857Z,1011.76
2023-11-23T01:32:09.831Z,1011.75
2023-11-23T01:33:09.878Z,1011.76
2023-11-23T01:34:09.892Z,1011.72
2023-11-23T01:35:09.805Z,1011.69
2023-11-23T01:36:09.816Z,1011.67
2023-11-23T01:37:09.773Z,1011.60
2023-11-23T01:38:09.761Z,1011.60
2023-11-23T01:39:09.784Z,1011.58
2023-11-23T01:40:09.757Z,1011.59
2023-11-23T01:41:09.723Z,1011.61
2023-11-23T01:42:09.783Z,1011.61
2023-11-23T01:43:09.688Z,1011.61
2023-11-23T01:44:09.683Z,1011.61
2023-11-23T01:45:09.741Z,1011.55
2023-11-23T01:46:09.689Z,1011.55
2023-11-23T01:47:09.637Z,1011.55
2023-11-23T01:48:09.672Z,1011.49
2023-11-23T01:49:09.640Z,1011.44
2023-11-23T01:50:09.626Z,1011.48
2023-11-23T01:51:09.715Z,1011.44
2023-11-23T01:52:09.572Z,1011.47
2023-11-23T01:53:09.565Z,1011.44
2023-11-23T01:54:09.612Z,1011.43
2023-11-23T01:55:09.526Z,1011.38
2023-11-23T01:56:09.518Z,1011.39
2023-11-23T01:57:09.559Z,1011.34
2023-11-23T01:58:09.523Z,1011.31
2023-11-23T01:59:09.489Z,1011.30
2023-11-23T02:00:09.562Z,1011.29
2023-11-23T02:01:09.452Z,1011.26
2023-11-23T02:02:09.494Z,1011.26
2023-11-23T02:03:09.529Z,1011.25
2023-11-23T02:04:09.477Z,1011.25
2023-11-23T02:05:09.396Z,1011.25
2023-11-23T02:06:09.459Z,1011.20
2023-11-23T02:07:09.398Z,1011.20
2023-11-23T02:08:09.378Z,1011.23
2023-11-23T02:09:09.386Z,1011.25
2023-11-23T02:10:09.367Z,1011.29
2023-11-23T02:11:09.317Z,1011.31
2023-11-23T02:12:09.352Z,1011.29
2023-11-23T02:13:09.312Z,1011.26
2023-11-23T02:14:09.279Z,1011.29
2023-11-23T02:15:09.316Z,1011.22
2023-11-23T02:16:09.326Z,1011.18
2023-11-23T02:17:09.239Z,1011.18
2023-11-23T02:18:09.287Z,1011.13
2023-11-23T02:19:09.259Z,1011.14
2023-11-23T02:20:09.200Z,1011.13
2023-11-23T02:21:09.247Z,1011.15
2023-11-23T02:22:09.201Z,1011.15
2023-11-23T02:23:09.180Z,1011.16
2023-11-23T02:24:09.230Z,1011.17
2023-11-23T02:25:09.169Z,1011.19
2023-11-23T02:26:09.128Z,1011.17
2023-11-23T02:27:09.190Z,1011.18
2023-11-23T02:28:09.101Z,1011.15
2023-11-23T02:29:09.099Z,1011.18
2023-11-23T02:30:09.146Z,1011.21
2023-11-23T02:31:09.094Z,1011.23
2023-11-23T02:32:09.086Z,1011.26
2023-11-23T02:33:09.137Z,1011.28
2023-11-23T02:34:09.024Z,1011.27
2023-11-23T02:35:09.012Z,1011.27
2023-11-23T02:36:09.046Z,1011.25
2023-11-23T02:37:09.013Z,1011.22
2023-11-23T02:38:08.971Z,1011.20
2023-11-23T02:39:08.987Z,1011.19
2023-11-23T02:40:08.961Z,1011.16
2023-11-23T02:41:08.948Z,1011.17
2023-11-23T02:42:08.937Z,1011.10
2023-11-23T02:43:08.900Z,1011.06
2023-11-23T02:44:08.900Z,1011.09
2023-11-23T02:45:08.930Z,1011.04
2023-11-23T02:46:08.931Z,1011.04
2023-11-23T02:47:08.857Z,1011.02
2023-11-23T02:48:08.987Z,1010.93
2023-11-23T02:49:08.820Z,1010.95
2023-11-23T02:50:08.835Z,1010.98
2023-11-23T02:51:08.857Z,1010.98
2023-11-23T02:52:08.785Z,1010.97
2023-11-23T02:53:08.773Z,1010.98
2023-11-23T02:54:08.839Z,1010.89
2023-11-23T02:55:10.521Z,1010.92
2023-11-23T02:56:08.735Z,1010.86
2023-11-23T02:57:08.757Z,1010.89
2023-11-23T02:58:08.716Z,1010.92
2023-11-23T02:59:08.714Z,1010.98
2023-11-23T03:00:08.851Z,1010.96
2023-11-23T03:01:08.718Z,1010.93
2023-11-23T03:02:08.688Z,1010.90
2023-11-23T03:03:08.709Z,1010.90
2023-11-23T03:04:08.660Z,1010.90
2023-11-23T03:05:08.613Z,1010.91
2023-11-23T03:06:08.715Z,1010.88
2023-11-23T03:07:08.587Z,1010.84
2023-11-23T03:08:08.605Z,1010.75
2023-11-23T03:09:08.646Z,1010.75
2023-11-23T03:10:08.561Z,1010.74
2023-11-23T03:11:08.536Z,1010.73
2023-11-23T03:12:08.611Z,1010.76
2023-11-23T03:13:08.539Z,1010.81
2023-11-23T03:14:08.498Z,1010.77
2023-11-23T03:15:08.547Z,1010.78
2023-11-23T03:16:08.468Z,1010.78
2023-11-23T03:17:08.476Z,1010.70
2023-11-23T03:18:11.003Z,1010.71
2023-11-23T03:19:08.520Z,1010.69
2023-11-23T03:20:08.435Z,1010.72
2023-11-23T03:21:08.486Z,1010.71
2023-11-23T03:22:08.416Z,1010.74
2023-11-23T03:23:08.431Z,1010.78
2023-11-23T03:24:08.385Z,1010.70
2023-11-23T03:25:08.355Z,1010.80
2023-11-23T03:26:08.346Z,1010.74
2023-11-23T03:27:08.367Z,1010.70
2023-11-23T03:28:08.404Z,1010.75
2023-11-23T03:29:08.303Z,1010.76
2023-11-23T03:30:08.363Z,1010.74
2023-11-23T03:31:08.275Z,1010.76
2023-11-23T03:32:08.292Z,1010.79
2023-11-23T03:33:08.334Z,1010.75
2023-11-23T03:34:08.238Z,1010.73
2023-11-23T03:35:08.223Z,1010.82
2023-11-23T03:36:08.228Z,1010.81
2023-11-23T03:37:08.206Z,1010.75
2023-11-23T03:38:08.187Z,1010.81
2023-11-23T03:39:08.319Z,1010.83
2023-11-23T03:40:08.164Z,1010.78
2023-11-23T03:41:08.144Z,1010.78
2023-11-23T03:42:08.187Z,1010.76
2023-11-23T03:43:08.109Z,1010.73
2023-11-23T03:44:08.109Z,1010.67
2023-11-23T03:45:08.158Z,1010.65
2023-11-23T03:46:08.122Z,1010.69
2023-11-23T03:47:08.094Z,1010.65
2023-11-23T03:48:08.092Z,1010.60
2023-11-23T03:49:08.035Z,1010.64
2023-11-23T03:50:08.029Z,1010.61
2023-11-23T03:51:08.082Z,1010.59
2023-11-23T03:52:08.005Z,1010.60
2023-11-23T03:53:07.983Z,1010.57
2023-11-23T03:54:08.082Z,1010.58
2023-11-23T03:55:07.973Z,1010.57
2023-11-23T03:56:07.964Z,1010.60
2023-11-23T03:57:08.044Z,1010.65
2023-11-23T03:58:07.932Z,1010.66
2023-11-23T03:59:07.943Z,1010.61
2023-11-23T04:00:16.722Z,1010.61
2023-11-23T04:01:07.888Z,1010.60
2023-11-23T04:02:07.997Z,1010.63
2023-11-23T04:03:07.887Z,1010.62
2023-11-23T04:04:07.918Z,1010.59
2023-11-23T04:05:07.914Z,1010.55
2023-11-23T04:06:07.866Z,1010.59
2023-11-23T04:07:07.826Z,1010.56
2023-11-23T04:08:07.800Z,1010.55
2023-11-23T04:09:07.810Z,1010.54
2023-11-23T04:10:07.796Z,1010.55
2023-11-23T04:11:07.763Z,1010.56
2023-11-23T04:12:07.785Z,1010.56
2023-11-23T04:13:07.762Z,1010.52
2023-11-23T04:14:07.762Z,1010.57
2023-11-23T04:15:07.827Z,1010.55
2023-11-23T04:16:07.711Z,1010.57
2023-11-23T04:17:07.678Z,1010.56
2023-11-23T04:18:07.760Z,1010.51
2023-11-23T04:19:07.705Z,1010.51
2023-11-23T04:20:07.656Z,1010.52
2023-11-23T04:21:07.677Z,1010.50
2023-11-23T04:22:07.650Z,1010.51
2023-11-23T04:23:07.616Z,1010.47
2023-11-23T04:24:07.648Z,1010.47
2023-11-23T04:25:07.649Z,1010.45
2023-11-23T04:26:07.570Z,1010.47
2023-11-23T04:27:07.626Z,1010.46
2023-11-23T04:28:07.540Z,1010.46
2023-11-23T04:29:07.544Z,1010.47
2023-11-23T04:30:07.578Z,1010.47
2023-11-23T04:31:07.502Z,1010.47
2023-11-23T04:32:07.509Z,1010.47
2023-11-23T04:33:07.634Z,1010.47
2023-11-23T04:34:07.623Z,1010.48
2023-11-23T04:35:07.455Z,1010.49
2023-11-23T04:36:07.463Z,1010.49
2023-11-23T04:37:07.418Z,1010.51
2023-11-23T04:38:07.419Z,1010.50
2023-11-23T04:39:07.435Z,1010.49
2023-11-23T04:40:07.467Z,1010.49
2023-11-23T04:41:07.376Z,1010.49
2023-11-23T04:42:07.388Z,1010.46
2023-11-23T04:43:07.360Z,1010.47
2023-11-23T04:44:07.324Z,1010.47
2023-11-23T04:45:07.334Z,1010.47
2023-11-23T04:46:07.310Z,1010.45
2023-11-23T04:47:07.291Z,1010.41
2023-11-23T04:48:07.392Z,1010.43
2023-11-23T04:49:07.264Z,1010.37
2023-11-23T04:50:07.247Z,1010.43
2023-11-23T04:51:07.304Z,1010.41
2023-11-23T04:52:07.283Z,1010.46
2023-11-23T04:53:07.230Z,1010.46
2023-11-23T04:54:07.215Z,1010.46
2023-11-23T04:55:07.195Z,1010.45
2023-11-23T04:56:07.174Z,1010.42
2023-11-23T04:57:07.239Z,1010.47
2023-11-23T04:58:07.148Z,1010.46
2023-11-23T04:59:07.135Z,1010.43
2023-11-23T05:00:07.190Z,1010.39
2023-11-23T05:01:07.126Z,1010.39
2023-11-23T05:02:07.126Z,1010.36
2023-11-23T05:03:07.139Z,1010.37
2023-11-23T05:04:07.251Z,1010.39
2023-11-23T05:05:07.058Z,1010.38
2023-11-23T05:06:07.113Z,1010.39
2023-11-23T05:07:07.054Z,1010.41
2023-11-23T05:08:07.019Z,1010.38
2023-11-23T05:09:07.057Z,1010.39
2023-11-23T05:10:06.998Z,1010.37
2023-11-23T05:11:06.994Z,1010.38
2023-11-23T05:12:07.001Z,1010.32
2023-11-23T05:13:06.958Z,1010.32
2023-11-23T05:14:06.997Z,1010.33
2023-11-23T05:15:06.983Z,1010.29
2023-11-23T05:16:06.985Z,1010.26
2023-11-23T05:17:06.970Z,1010.29
2023-11-23T05:18:06.992Z,1010.24
2023-11-23T05:19:06.879Z,1010.26
2023-11-23T05:20:06.941Z,1010.21
2023-11-23T05:21:06.912Z,1010.20
2023-11-23T05:22:06.834Z,1010.19
2023-11-23T05:23:06.827Z,1010.15
2023-11-23T05:24:06.835Z,1010.14
2023-11-23T05:25:06.834Z,1010.11
2023-11-23T05:26:06.802Z,1010.10
2023-11-23T05:27:06.806Z,1010.08
2023-11-23T05:28:06.745Z,1010.02
2023-11-23T05:29:06.749Z,1010.05
2023-11-23T05:30:06.797Z,1010.00
2023-11-23T05:31:06.753Z,1010.03
2023-11-23T05:32:06.713Z,1010.07
2023-11-23T05:33:06.748Z,1010.13
2023-11-23T05:34:06.675Z,1010.18
2023-11-23T05:35:06.693Z,1010.25
2023-11-23T05:36:06.650Z,1010.29
2023-11-23T05:37:06.638Z,1010.29
2023-11-23T05:38:06.619Z,1010.26
2023-11-23T05:39:06.676Z,1010.27
2023-11-23T05:40:06.697Z,1010.27
2023-11-23T05:41:06.599Z,1010.26
2023-11-23T05:42:06.590Z,1010.26
2023-11-23T05:43:06.638Z,1010.25
2023-11-23T05:44:06.560Z,1010.18
2023-11-23T05:45:06.590Z,1010.18
2023-11-23T05:46:06.519Z,1010.17
2023-11-23T05:47:06.713Z,1010.20
2023-11-23T05:48:06.568Z,1010.22
2023-11-23T05:49:06.505Z,1010.21
2023-11-23T05:50:06.469Z,1010.18
2023-11-23T05:51:06.467Z,1010.21
2023-11-23T05:52:06.441Z,1010.18
2023-11-23T05:53:06.440Z,1010.20
2023-11-23T05:54:06.460Z,1010.19
2023-11-23T05:55:06.398Z,1010.19
2023-11-23T05:56:06.388Z,1010.16
2023-11-23T05:57:06.432Z,1010.19
2023-11-23T05:58:06.360Z,1010.19
2023-11-23T05:59:06.385Z,1010.17
2023-11-23T06:00:06.353Z,1010.12
2023-11-23T06:01:11.889Z,1010.11
2023-11-23T06:02:07.350Z,1010.09
2023-11-23T06:03:06.361Z,1010.03
2023-11-23T06:04:06.429Z,1010.02
2023-11-23T06:05:06.353Z,1010.00
2023-11-23T06:06:06.383Z,1009.96
2023-11-23T06:07:06.252Z,1010.00
2023-11-23T06:08:06.258Z,1009.99
2023-11-23T06:09:06.270Z,1010.06
2023-11-23T06:10:06.369Z,1010.11
2023-11-23T06:11:06.193Z,1010.09
2023-11-23T06:12:06.196Z,1010.07
2023-11-23T06:13:06.201Z,1010.05
2023-11-23T06:14:06.190Z,1010.02
2023-11-23T06:15:06.156Z,1010.03
2023-11-23T06:16:06.140Z,1010.08
2023-11-23T06:17:06.115Z,1010.06
2023-11-23T06:18:13.523Z,1010.01
2023-11-23T06:19:07.105Z,1010.02
2023-11-23T06:20:06.079Z,1010.00
2023-11-23T06:21:06.111Z,1009.96
2023-11-23T06:22:06.057Z,1010.00
2023-11-23T06:23:06.062Z,1009.96
2023-11-23T06:24:06.036Z,1010.05
2023-11-23T06:25:06.068Z,1009.98
2023-11-23T06:26:06.014Z,1009.97
2023-11-23T06:27:06.010Z,1010.06
2023-11-23T06:28:14.646Z,1010.06
2023-11-23T06:29:06.950Z,1010.05
2023-11-23T06:30:05.998Z,1010.01
2023-11-23T06:31:05.949Z,1009.99
2023-11-23T06:32:07.167Z,1010.10
2023-11-23T06:33:05.958Z,1010.05
2023-11-23T06:34:05.889Z,1010.03
2023-11-23T06:35:05.880Z,1010.03
2023-11-23T06:36:05.854Z,1010.11
2023-11-23T06:37:05.856Z,1010.06
2023-11-23T06:38:05.874Z,1010.03
2023-11-23T06:39:05.865Z,1010.04
2023-11-23T06:40:05.802Z,1009.97
2023-11-23T06:41:05.816Z,1010.01
2023-11-23T06:42:05.856Z,1010.06
2023-11-23T06:43:05.766Z,1010.08
2023-11-23T06:44:05.743Z,1010.05
2023-11-23T06:45:05.743Z,1010.07
2023-11-23T06:46:05.762Z,1010.03
2023-11-23T06:47:05.784Z,1010.00
2023-11-23T06:48:05.886Z,1009.99
2023-11-23T06:49:07.933Z,1010.02
2023-11-23T06:50:05.822Z,1009.93
2023-11-23T06:51:06.096Z,1009.94
2023-11-23T06:52:05.742Z,1009.95
2023-11-23T06:53:06.342Z,1009.94
2023-11-23T06:54:05.788Z,1009.92
2023-11-23T06:55:05.626Z,1009.88
2023-11-23T06:56:05.643Z,1009.86
2023-11-23T06:57:05.639Z,1009.86
2023-11-23T06:58:07.325Z,1009.84
2023-11-23T06:59:05.589Z,1009.77
2023-11-23T07:00:05.585Z,1009.76
2023-11-23T07:01:05.565Z,1009.76
2023-11-23T07:02:05.588Z,1009.84
2023-11-23T07:03:05.614Z,1009.82
2023-11-23T07:04:05.547Z,1009.89
2023-11-23T07:05:05.505Z,1009.96
2023-11-23T07:06:05.470Z,1009.91
2023-11-23T07:07:05.471Z,1009.93
2023-11-23T07:08:05.438Z,1009.96
2023-11-23T07:09:05.511Z,1009.97
2023-11-23T07:10:05.427Z,1009.97
2023-11-23T07:11:05.416Z,1009.94
2023-11-23T07:12:05.418Z,1009.91
2023-11-23T07:13:05.417Z,1009.92
2023-11-23T07:14:05.439Z,1009.90
2023-11-23T07:15:05.386Z,1009.89
2023-11-23T07:16:05.367Z,1009.89
2023-11-23T07:17:05.338Z,1009.87
2023-11-23T07:18:05.421Z,1009.90
2023-11-23T07:19:05.392Z,1009.89
2023-11-23T07:20:05.302Z,1009.91
2023-11-23T07:21:05.346Z,1009.86
2023-11-23T07:22:05.253Z,1009.82
2023-11-23T07:23:05.251Z,1009.77
2023-11-23T07:24:05.292Z,1009.78
2023-11-23T07:25:05.228Z,1009.85
2023-11-23T07:26:05.205Z,1009.90
2023-11-23T07:27:05.225Z,1009.91
2023-11-23T07:28:05.197Z,1009.88
2023-11-23T07:29:05.190Z,1009.91
2023-11-23T07:30:05.257Z,1009.87
2023-11-23T07:31:05.179Z,1009.86
2023-11-23T07:32:05.134Z,1009.84
2023-11-23T07:33:05.185Z,1009.81
2023-11-23T07:34:05.124Z,1009.83
2023-11-23T07:35:05.322Z,1009.85
2023-11-23T07:36:05.158Z,1009.85
2023-11-23T07:37:05.096Z,1009.79
2023-11-23T07:38:05.107Z,1009.77
2023-11-23T07:39:05.120Z,1009.81
2023-11-23T07:40:05.052Z,1009.82
2023-11-23T07:41:05.061Z,1009.83
2023-11-23T07:42:05.079Z,1009.82
2023-11-23T07:43:05.012Z,1009.82
2023-11-23T07:44:04.975Z,1009.82
2023-11-23T07:45:04.994Z,1009.81
2023-11-23T07:46:04.968Z,1009.80
2023-11-23T07:47:04.953Z,1009.79
2023-11-23T07:48:05.064Z,1009.83
2023-11-23T07:49:04.916Z,1009.80
2023-11-23T07:50:04.914Z,1009.79
2023-11-23T07:51:04.926Z,1009.80
2023-11-23T07:52:04.887Z,1009.80
2023-11-23T07:53:04.870Z,1009.83
2023-11-23T07:54:04.872Z,1009.81
2023-11-23T07:55:04.840Z,1009.85
2023-11-23T07:56:04.816Z,1009.81
2023-11-23T07:57:04.846Z,1009.80
2023-11-23T07:58:04.870Z,1009.79
2023-11-23T07:59:04.787Z,1009.75
2023-11-23T08:00:04.810Z,1009.77
2023-11-23T08:01:04.828Z,1009.72
2023-11-23T08:02:04.812Z,1009.73
2023-11-23T08:03:04.817Z,1009.70
2023-11-23T08:04:04.906Z,1009.73
2023-11-23T08:05:04.767Z,1009.70
2023-11-23T08:06:04.703Z,1009.70
2023-11-23T08:07:04.712Z,1009.73
2023-11-23T08:08:04.661Z,1009.73
2023-11-23T08:09:04.732Z,1009.73
2023-11-23T08:10:04.641Z,1009.71
2023-11-23T08:11:04.652Z,1009.70
2023-11-23T08:12:04.654Z,1009.68
2023-11-23T08:13:04.617Z,1009.65
2023-11-23T08:14:04.595Z,1009.65
2023-11-23T08:15:04.626Z,1009.64
2023-11-23T08:16:04.568Z,1009.61
2023-11-23T08:17:04.600Z,1009.60
2023-11-23T08:18:08.070Z,1009.65
2023-11-23T08:19:04.629Z,1009.63
2023-11-23T08:20:04.522Z,1009.53
2023-11-23T08:21:04.766Z,1009.58
2023-11-23T08:22:04.487Z,1009.54
2023-11-23T08:23:04.482Z,1009.56
2023-11-23T08:24:04.484Z,1009.54
2023-11-23T08:25:04.461Z,1009.51
2023-11-23T08:26:04.458Z,1009.53
2023-11-23T08:27:04.559Z,1009.52
2023-11-23T08:28:04.439Z,1009.50
2023-11-23T08:29:04.406Z,1009.47
2023-11-23T08:30:04.456Z,1009.44
2023-11-23T08:31:04.451Z,1009.45
2023-11-23T08:32:04.366Z,1009.44
2023-11-23T08:33:04.596Z,1009.45
2023-11-23T08:34:04.335Z,1009.45
2023-11-23T08:35:04.344Z,1009.45
2023-11-23T08:36:04.325Z,1009.44
2023-11-23T08:37:04.327Z,1009.46
2023-11-23T08:38:04.331Z,1009.45
2023-11-23T08:39:04.313Z,1009.48
2023-11-23T08:40:04.282Z,1009.49
2023-11-23T08:41:04.416Z,1009.48
2023-11-23T08:42:04.293Z,1009.51
2023-11-23T08:43:04.281Z,1009.47
2023-11-23T08:44:04.222Z,1009.47
2023-11-23T08:45:04.243Z,1009.43
2023-11-23T08:46:04.184Z,1009.41
2023-11-23T08:47:04.240Z,1009.38
2023-11-23T08:48:04.242Z,1009.39
2023-11-23T08:49:04.485Z,1009.32
2023-11-23T08:50:04.121Z,1009.36
2023-11-23T08:51:04.214Z,1009.32
2023-11-23T08:52:04.114Z,1009.28
2023-11-23T08:53:04.092Z,1009.28
2023-11-23T08:54:04.136Z,1009.27
2023-11-23T08:55:04.070Z,1009.25
2023-11-23T08:56:04.063Z,1009.24
2023-11-23T08:57:04.051Z,1009.22
2023-11-23T08:58:04.046Z,1009.20
2023-11-23T08:59:04.036Z,1009.17
2023-11-23T09:00:04.042Z,1009.14
2023-11-23T09:01:04.013Z,1009.10
2023-11-23T09:02:09.415Z,1009.09
2023-11-23T09:03:05.105Z,1009.05
2023-11-23T09:04:04.151Z,1009.01
2023-11-23T09:05:04.147Z,1008.95
2023-11-23T09:06:04.246Z,1008.92
2023-11-23T09:07:03.929Z,1008.90
2023-11-23T09:08:03.922Z,1008.92
2023-11-23T09:09:03.906Z,1008.90
2023-11-23T09:10:03.898Z,1008.93
2023-11-23T09:11:03.898Z,1008.86
2023-11-23T09:12:03.905Z,1008.89
2023-11-23T09:13:03.849Z,1008.93
2023-11-23T09:14:03.948Z,1008.91
2023-11-23T09:15:03.967Z,1008.90
2023-11-23T09:16:03.824Z,1008.91
2023-11-23T09:17:03.810Z,1008.93
2023-11-23T09:18:03.957Z,1008.91
2023-11-23T09:19:03.834Z,1008.98
2023-11-23T09:20:03.780Z,1008.97
2023-11-23T09:21:03.756Z,1009.02
2023-11-23T09:22:03.745Z,1009.05
2023-11-23T09:23:03.761Z,1009.05
2023-11-23T09:24:03.744Z,1009.04
2023-11-23T09:25:03.676Z,1009.03
2023-11-23T09:26:03.686Z,1009.03
2023-11-23T09:27:03.710Z,1009.01
2023-11-23T09:28:03.713Z,1008.98
2023-11-23T09:29:03.619Z,1009.03
2023-11-23T09:30:03.674Z,1009.00
2023-11-23T09:31:03.633Z,1008.98
2023-11-23T09:32:03.682Z,1008.94
2023-11-23T09:33:03.697Z,1008.97
2023-11-23T09:34:03.630Z,1008.93
2023-11-23T09:35:03.544Z,1008.97
2023-11-23T09:36:04.216Z,1008.90
2023-11-23T09:37:03.519Z,1008.87
2023-11-23T09:38:03.505Z,1008.87
2023-11-23T09:39:03.535Z,1008.81
2023-11-23T09:40:03.488Z,1008.77
2023-11-23T09:41:03.518Z,1008.79
2023-11-23T09:42:03.465Z,1008.81
2023-11-23T09:43:03.512Z,1008.82
2023-11-23T09:44:03.442Z,1008.80
2023-11-23T09:45:03.470Z,1008.77
2023-11-23T09:46:03.516Z,1008.72
2023-11-23T09:47:03.396Z,1008.72
2023-11-23T09:48:03.436Z,1008.75
2023-11-23T09:49:03.426Z,1008.69
2023-11-23T09:50:03.372Z,1008.66
2023-11-23T09:51:03.420Z,1008.67
2023-11-23T09:52:03.342Z,1008.64
2023-11-23T09:53:03.342Z,1008.66
2023-11-23T09:54:03.323Z,1008.72
2023-11-23T09:55:03.451Z,1008.74
2023-11-23T09:56:03.280Z,1008.75
2023-11-23T09:57:03.312Z,1008.73
2023-11-23T09:58:03.251Z,1008.73
2023-11-23T09:59:03.226Z,1008.66
2023-11-23T10:00:03.404Z,1008.64
2023-11-23T10:01:03.256Z,1008.60
2023-11-23T10:02:03.263Z,1008.58
2023-11-23T10:03:03.297Z,1008.59
2023-11-23T10:04:03.299Z,1008.61
2023-11-23T10:05:03.200Z,1008.60
2023-11-23T10:06:03.204Z,1008.60
2023-11-23T10:07:03.180Z,1008.55
2023-11-23T10:08:03.099Z,1008.51
2023-11-23T10:09:03.129Z,1008.53
2023-11-23T10:10:03.095Z,1008.44
2023-11-23T10:11:03.083Z,1008.41
2023-11-23T10:12:03.111Z,1008.35
2023-11-23T10:13:03.032Z,1008.37
2023-11-23T10:14:03.043Z,1008.37
2023-11-23T10:15:03.970Z,1008.41
2023-11-23T10:16:03.036Z,1008.41
2023-11-23T10:17:02.975Z,1008.38
2023-11-23T10:18:03.074Z,1008.35
2023-11-23T10:19:03.019Z,1008.34
2023-11-23T10:20:02.957Z,1008.28
2023-11-23T10:21:02.950Z,1008.26
2023-11-23T10:22:02.919Z,1008.33
2023-11-23T10:23:03.130Z,1008.34
2023-11-23T10:24:03.352Z,1008.33
2023-11-23T10:25:02.922Z,1008.29
2023-11-23T10:26:02.866Z,1008.24
2023-11-23T10:27:02.898Z,1008.27
2023-11-23T10:28:02.864Z,1008.21
2023-11-23T10:29:02.960Z,1008.19
2023-11-23T10:30:02.879Z,1008.28
2023-11-23T10:31:02.880Z,1008.26
2023-11-23T10:32:02.813Z,1008.26
2023-11-23T10:33:02.855Z,1008.18
2023-11-23T10:34:02.805Z,1008.10
2023-11-23T10:35:02.725Z,1008.04
2023-11-23T10:36:02.755Z,1007.96
2023-11-23T10:37:02.730Z,1007.92
2023-11-23T10:38:02.692Z,1007.90
2023-11-23T10:39:02.737Z,1007.85
2023-11-23T10:40:02.734Z,1007.83
2023-11-23T10:41:02.657Z,1007.80
2023-11-23T10:42:02.664Z,1007.72
2023-11-23T10:43:02.620Z,1007.70
2023-11-23T10:44:02.614Z,1007.69
2023-11-23T10:45:02.754Z,1007.69
2023-11-23T10:46:02.719Z,1007.70
2023-11-23T10:47:02.583Z,1007.70
2023-11-23T10:48:02.626Z,1007.66
2023-11-23T10:49:02.600Z,1007.68
2023-11-23T10:50:02.560Z,1007.71
2023-11-23T10:51:02.558Z,1007.78
2023-11-23T10:52:02.534Z,1007.82
2023-11-23T10:53:02.524Z,1007.82
2023-11-23T10:54:02.514Z,1007.80
2023-11-23T10:55:02.469Z,1007.74
2023-11-23T10:56:02.474Z,1007.65
2023-11-23T10:57:02.457Z,1007.53
2023-11-23T10:58:02.454Z,1007.49
2023-11-23T10:59:02.409Z,1007.48
2023-11-23T11:00:02.456Z,1007.45
2023-11-23T11:01:02.426Z,1007.45
2023-11-23T11:02:02.518Z,1007.47
2023-11-23T11:03:02.395Z,1007.45
2023-11-23T11:04:02.496Z,1007.45
2023-11-23T11:05:02.333Z,1007.40
2023-11-23T11:06:02.350Z,1007.41
2023-11-23T11:07:02.311Z,1007.42
2023-11-23T11:08:02.363Z,1007.33
2023-11-23T11:09:02.307Z,1007.28
2023-11-23T11:10:02.333Z,1007.28
2023-11-23T11:11:02.276Z,1007.32
2023-11-23T11:12:02.541Z,1007.34
2023-11-23T11:13:02.243Z,1007.46
2023-11-23T11:14:02.266Z,1007.50
2023-11-23T11:15:02.245Z,1007.46
2023-11-23T11:16:02.206Z,1007.37
2023-11-23T11:17:02.180Z,1007.22
2023-11-23T11:18:02.226Z,1007.14
2023-11-23T11:19:02.169Z,1007.09
2023-11-23T11:20:02.175Z,1007.08
2023-11-23T11:21:02.374Z,1007.13
2023-11-23T11:22:02.122Z,1007.18
2023-11-23T11:23:02.127Z,1007.21
2023-11-23T11:24:02.105Z,1007.29
2023-11-23T11:25:02.098Z,1007.24
2023-11-23T11:26:02.069Z,1007.24
2023-11-23T11:27:02.060Z,1007.19
2023-11-23T11:28:02.030Z,1007.14
2023-11-23T11:29:02.088Z,1007.05
2023-11-23T11:30:02.065Z,1007.06
2023-11-23T11:31:02.089Z,1007.01
2023-11-23T11:32:02.054Z,1007.00
2023-11-23T11:33:01.995Z,1007.00
2023-11-23T11:34:01.983Z,1007.02
2023-11-23T11:35:01.979Z,1006.98
2023-11-23T11:36:02.051Z,1006.95
2023-11-23T11:37:01.939Z,1006.98
2023-11-23T11:38:01.900Z,1006.94
2023-11-23T11:39:01.953Z,1006.96
2023-11-23T11:40:02.101Z,1007.01
2023-11-23T11:41:01.882Z,1006.98
2023-11-23T11:42:01.956Z,1006.90
2023-11-23T11:43:01.825Z,1006.87
2023-11-23T11:44:01.829Z,1006.92
2023-11-23T11:45:01.852Z,1006.88
2023-11-23T11:46:01.806Z,1006.84
2023-11-23T11:47:01.808Z,1006.85
2023-11-23T11:48:01.862Z,1006.87
2023-11-23T11:49:01.743Z,1006.90
2023-11-23T11:50:01.785Z,1006.85
2023-11-23T11:51:01.795Z,1006.69
2023-11-23T11:52:01.711Z,1006.66
2023-11-23T11:53:01.710Z,1006.70
2023-11-23T11:54:01.731Z,1006.63
2023-11-23T11:55:01.697Z,1006.61
2023-11-23T11:56:01.678Z,1006.51
2023-11-23T11:57:01.694Z,1006.49
2023-11-23T11:58:01.671Z,1006.47
2023-11-23T11:59:01.613Z,1006.51
2023-11-23T12:00:01.729Z,1006.49
2023-11-23T12:01:01.616Z,1006.52
2023-11-23T12:02:01.625Z,1006.44
2023-11-23T12:03:01.805Z,1006.46
2023-11-23T12:04:01.629Z,1006.51
2023-11-23T12:05:01.631Z,1006.49